sensor_id;sensor_type;location;lat;lon;timestamp;temperature;humidity
5419;DHT22;2732;52.092;11.556;2023-08-30T00:00:27;15.50;99.90
5419;DHT22;2732;52.092;11.556;2023-08-30T00:05:28;15.40;99.90
5419;DHT22;2732;52.092;11.556;2023-08-30T00:10:29;15.40;99.90
5419;DHT22;2732;52.092;11.556;2023-08-30T00:15:29;15.40;99.90
5419;DHT22;2732;52.092;11.556;2023-08-30T00:20:30;15.40;99.90
5419;DHT22;2732;52.092;11.556;2023-08-30T00:25:31;15.30;99.90
5419;DHT22;2732;52.092;11.556;2023-08-30T00:30:31;15.30;99.90
5419;DHT22;2732;52.092;11.556;2023-08-30T00:35:32;15.30;99.90
5419;DHT22;2732;52.092;11.556;2023-08-30T00:40:39;15.30;99.90
5419;DHT22;2732;52.092;11.556;2023-08-30T00:45:40;15.20;99.90
5419;DHT22;2732;52.092;11.556;2023-08-30T00:50:41;15.30;99.90
5419;DHT22;2732;52.092;11.556;2023-08-30T00:55:43;15.20;99.90
5419;DHT22;2732;52.092;11.556;2023-08-30T01:00:44;15.20;99.90
5419;DHT22;2732;52.092;11.556;2023-08-30T01:05:45;15.20;99.90
5419;DHT22;2732;52.092;11.556;2023-08-30T01:10:59;15.10;99.90
5419;DHT22;2732;52.092;11.556;2023-08-30T01:16:37;15.10;99.90
5419;DHT22;2732;52.092;11.556;2023-08-30T01:21:44;15.10;99.90
5419;DHT22;2732;52.092;11.556;2023-08-30T01:27:09;15.10;99.90
5419;DHT22;2732;52.092;11.556;2023-08-30T01:32:11;15.00;99.90
5419;DHT22;2732;52.092;11.556;2023-08-30T01:37:13;15.00;99.90
5419;DHT22;2732;52.092;11.556;2023-08-30T01:42:14;14.90;99.90
5419;DHT22;2732;52.092;11.556;2023-08-30T01:47:15;14.90;99.90
5419;DHT22;2732;52.092;11.556;2023-08-30T01:52:17;14.80;99.90
5419;DHT22;2732;52.092;11.556;2023-08-30T01:57:19;14.80;99.90
5419;DHT22;2732;52.092;11.556;2023-08-30T02:02:19;14.70;99.90
5419;DHT22;2732;52.092;11.556;2023-08-30T02:07:27;14.70;99.90
5419;DHT22;2732;52.092;11.556;2023-08-30T02:12:46;14.60;99.90
5419;DHT22;2732;52.092;11.556;2023-08-30T02:17:48;14.60;99.90
5419;DHT22;2732;52.092;11.556;2023-08-30T02:22:50;14.50;99.90
5419;DHT22;2732;52.092;11.556;2023-08-30T02:27:51;14.40;99.90
5419;DHT22;2732;52.092;11.556;2023-08-30T02:32:52;14.40;99.90
5419;DHT22;2732;52.092;11.556;2023-08-30T02:37:52;14.40;99.90
5419;DHT22;2732;52.092;11.556;2023-08-30T02:42:53;14.30;99.90
5419;DHT22;2732;52.092;11.556;2023-08-30T02:47:57;14.30;99.90
5419;DHT22;2732;52.092;11.556;2023-08-30T02:52:57;14.20;99.90
5419;DHT22;2732;52.092;11.556;2023-08-30T02:57:58;14.20;99.90
5419;DHT22;2732;52.092;11.556;2023-08-30T03:02:58;14.10;99.90
5419;DHT22;2732;52.092;11.556;2023-08-30T03:07:59;14.00;99.90
5419;DHT22;2732;52.092;11.556;2023-08-30T03:13:00;14.00;99.90
5419;DHT22;2732;52.092;11.556;2023-08-30T03:18:00;13.90;99.90
5419;DHT22;2732;52.092;11.556;2023-08-30T03:23:01;13.90;99.90
5419;DHT22;2732;52.092;11.556;2023-08-30T03:28:02;13.90;99.90
5419;DHT22;2732;52.092;11.556;2023-08-30T03:33:03;13.90;99.90
5419;DHT22;2732;52.092;11.556;2023-08-30T03:38:04;13.80;99.90
5419;DHT22;2732;52.092;11.556;2023-08-30T03:43:05;13.80;99.90
5419;DHT22;2732;52.092;11.556;2023-08-30T03:48:05;13.70;99.90
5419;DHT22;2732;52.092;11.556;2023-08-30T03:53:06;13.70;99.90
5419;DHT22;2732;52.092;11.556;2023-08-30T03:58:07;13.70;99.90
5419;DHT22;2732;52.092;11.556;2023-08-30T04:03:08;13.70;99.90
5419;DHT22;2732;52.092;11.556;2023-08-30T04:08:10;13.70;99.90
5419;DHT22;2732;52.092;11.556;2023-08-30T04:13:10;13.60;99.90
5419;DHT22;2732;52.092;11.556;2023-08-30T04:18:11;13.60;99.90
5419;DHT22;2732;52.092;11.556;2023-08-30T04:23:12;13.60;99.90
5419;DHT22;2732;52.092;11.556;2023-08-30T04:28:13;13.50;99.90
5419;DHT22;2732;52.092;11.556;2023-08-30T04:33:14;13.50;99.90
5419;DHT22;2732;52.092;11.556;2023-08-30T04:38:14;13.50;99.90
5419;DHT22;2732;52.092;11.556;2023-08-30T04:43:15;13.50;99.90
5419;DHT22;2732;52.092;11.556;2023-08-30T04:48:15;13.50;99.90
5419;DHT22;2732;52.092;11.556;2023-08-30T04:53:16;13.50;99.90
5419;DHT22;2732;52.092;11.556;2023-08-30T04:58:17;13.50;99.90
5419;DHT22;2732;52.092;11.556;2023-08-30T05:03:17;13.50;99.90
5419;DHT22;2732;52.092;11.556;2023-08-30T05:08:18;13.50;99.90
5419;DHT22;2732;52.092;11.556;2023-08-30T05:13:19;13.50;99.90
5419;DHT22;2732;52.092;11.556;2023-08-30T05:18:19;13.50;99.90
5419;DHT22;2732;52.092;11.556;2023-08-30T05:23:20;13.40;99.90
5419;DHT22;2732;52.092;11.556;2023-08-30T05:28:21;13.40;99.90
5419;DHT22;2732;52.092;11.556;2023-08-30T05:33:21;13.40;99.90
5419;DHT22;2732;52.092;11.556;2023-08-30T05:38:22;13.40;99.90
5419;DHT22;2732;52.092;11.556;2023-08-30T05:43:22;13.40;99.90
5419;DHT22;2732;52.092;11.556;2023-08-30T05:48:23;13.50;99.90
5419;DHT22;2732;52.092;11.556;2023-08-30T05:53:24;13.50;99.90
5419;DHT22;2732;52.092;11.556;2023-08-30T05:58:24;13.60;99.90
5419;DHT22;2732;52.092;11.556;2023-08-30T06:03:25;13.60;99.90
5419;DHT22;2732;52.092;11.556;2023-08-30T06:08:26;13.60;99.90
5419;DHT22;2732;52.092;11.556;2023-08-30T06:13:26;13.60;99.90
5419;DHT22;2732;52.092;11.556;2023-08-30T06:18:30;13.60;99.90
5419;DHT22;2732;52.092;11.556;2023-08-30T06:23:33;13.70;99.90
5419;DHT22;2732;52.092;11.556;2023-08-30T06:28:33;13.80;99.90
5419;DHT22;2732;52.092;11.556;2023-08-30T06:33:34;14.00;99.90
5419;DHT22;2732;52.092;11.556;2023-08-30T06:38:36;14.20;99.90
5419;DHT22;2732;52.092;11.556;2023-08-30T06:43:37;14.30;99.90
5419;DHT22;2732;52.092;11.556;2023-08-30T06:48:37;14.40;99.90
5419;DHT22;2732;52.092;11.556;2023-08-30T06:53:38;14.40;99.90
5419;DHT22;2732;52.092;11.556;2023-08-30T06:58:39;14.40;99.90
5419;DHT22;2732;52.092;11.556;2023-08-30T07:03:39;14.50;99.90
5419;DHT22;2732;52.092;11.556;2023-08-30T07:08:40;14.50;99.90
5419;DHT22;2732;52.092;11.556;2023-08-30T07:13:41;14.50;99.90
5419;DHT22;2732;52.092;11.556;2023-08-30T07:18:41;14.60;99.90
5419;DHT22;2732;52.092;11.556;2023-08-30T07:23:42;14.70;99.90
5419;DHT22;2732;52.092;11.556;2023-08-30T07:28:43;14.80;99.90
5419;DHT22;2732;52.092;11.556;2023-08-30T07:33:44;14.90;99.90
5419;DHT22;2732;52.092;11.556;2023-08-30T07:38:45;15.20;99.90
5419;DHT22;2732;52.092;11.556;2023-08-30T07:43:45;15.50;99.90
5419;DHT22;2732;52.092;11.556;2023-08-30T07:48:46;16.00;99.90
5419;DHT22;2732;52.092;11.556;2023-08-30T07:53:47;16.50;99.90
5419;DHT22;2732;52.092;11.556;2023-08-30T07:58:48;16.90;99.90
5419;DHT22;2732;52.092;11.556;2023-08-30T08:03:49;17.30;99.90
5419;DHT22;2732;52.092;11.556;2023-08-30T08:08:50;17.70;99.90
5419;DHT22;2732;52.092;11.556;2023-08-30T08:13:51;18.10;99.90
5419;DHT22;2732;52.092;11.556;2023-08-30T08:18:51;18.40;99.90
5419;DHT22;2732;52.092;11.556;2023-08-30T08:23:53;18.90;99.90
5419;DHT22;2732;52.092;11.556;2023-08-30T08:28:54;19.10;99.90
5419;DHT22;2732;52.092;11.556;2023-08-30T08:34:12;19.40;99.90
5419;DHT22;2732;52.092;11.556;2023-08-30T08:39:13;19.60;99.90
5419;DHT22;2732;52.092;11.556;2023-08-30T08:44:16;20.10;99.90
5419;DHT22;2732;52.092;11.556;2023-08-30T08:49:17;20.40;99.90
5419;DHT22;2732;52.092;11.556;2023-08-30T08:54:18;20.80;99.90
5419;DHT22;2732;52.092;11.556;2023-08-30T08:59:19;21.00;99.90
5419;DHT22;2732;52.092;11.556;2023-08-30T09:04:21;21.30;99.90
5419;DHT22;2732;52.092;11.556;2023-08-30T09:09:23;21.60;99.90
5419;DHT22;2732;52.092;11.556;2023-08-30T09:14:24;22.00;99.90
5419;DHT22;2732;52.092;11.556;2023-08-30T09:19:25;22.70;99.90
5419;DHT22;2732;52.092;11.556;2023-08-30T09:24:25;23.20;99.90
5419;DHT22;2732;52.092;11.556;2023-08-30T09:29:26;23.60;99.90
5419;DHT22;2732;52.092;11.556;2023-08-30T09:34:27;23.70;99.90
5419;DHT22;2732;52.092;11.556;2023-08-30T09:39:28;24.20;99.90
5419;DHT22;2732;52.092;11.556;2023-08-30T09:44:29;24.80;99.70
5419;DHT22;2732;52.092;11.556;2023-08-30T09:49:39;25.50;98.40
5419;DHT22;2732;52.092;11.556;2023-08-30T09:54:44;26.20;97.40
5419;DHT22;2732;52.092;11.556;2023-08-30T09:59:46;27.00;96.30
5419;DHT22;2732;52.092;11.556;2023-08-30T10:04:48;27.40;95.10
5419;DHT22;2732;52.092;11.556;2023-08-30T10:09:51;27.30;94.80
5419;DHT22;2732;52.092;11.556;2023-08-30T10:14:53;27.00;94.60
5419;DHT22;2732;52.092;11.556;2023-08-30T10:19:55;26.80;94.60
5419;DHT22;2732;52.092;11.556;2023-08-30T10:25:00;26.40;94.10
5419;DHT22;2732;52.092;11.556;2023-08-30T10:30:07;26.10;94.00
5419;DHT22;2732;52.092;11.556;2023-08-30T10:35:15;26.00;94.40
5419;DHT22;2732;52.092;11.556;2023-08-30T10:40:16;25.60;93.90
5419;DHT22;2732;52.092;11.556;2023-08-30T10:45:23;25.30;94.30
5419;DHT22;2732;52.092;11.556;2023-08-30T10:50:32;25.10;94.70
5419;DHT22;2732;52.092;11.556;2023-08-30T10:55:33;24.90;95.00
5419;DHT22;2732;52.092;11.556;2023-08-30T11:00:35;24.70;94.70
5419;DHT22;2732;52.092;11.556;2023-08-30T11:05:40;24.60;95.30
5419;DHT22;2732;52.092;11.556;2023-08-30T11:10:42;24.50;95.40
5419;DHT22;2732;52.092;11.556;2023-08-30T11:15:43;24.50;95.40
5419;DHT22;2732;52.092;11.556;2023-08-30T11:20:44;24.50;95.30
5419;DHT22;2732;52.092;11.556;2023-08-30T11:25:50;24.50;95.10
5419;DHT22;2732;52.092;11.556;2023-08-30T11:30:55;24.60;95.00
5419;DHT22;2732;52.092;11.556;2023-08-30T11:35:56;24.60;94.40
5419;DHT22;2732;52.092;11.556;2023-08-30T11:40:57;24.60;94.60
5419;DHT22;2732;52.092;11.556;2023-08-30T11:45:57;24.50;94.10
5419;DHT22;2732;52.092;11.556;2023-08-30T11:50:58;24.40;93.90
5419;DHT22;2732;52.092;11.556;2023-08-30T11:55:59;24.30;93.80
5419;DHT22;2732;52.092;11.556;2023-08-30T12:01:01;24.20;94.50
5419;DHT22;2732;52.092;11.556;2023-08-30T12:06:08;24.10;94.80
5419;DHT22;2732;52.092;11.556;2023-08-30T12:11:19;24.00;94.50
5419;DHT22;2732;52.092;11.556;2023-08-30T12:16:20;24.10;94.40
5419;DHT22;2732;52.092;11.556;2023-08-30T12:21:21;25.30;93.90
5419;DHT22;2732;52.092;11.556;2023-08-30T12:26:31;26.20;93.00
5419;DHT22;2732;52.092;11.556;2023-08-30T12:31:33;26.90;91.40
5419;DHT22;2732;52.092;11.556;2023-08-30T12:36:33;27.30;90.70
5419;DHT22;2732;52.092;11.556;2023-08-30T12:41:34;27.60;90.00
5419;DHT22;2732;52.092;11.556;2023-08-30T12:46:35;27.80;88.90
5419;DHT22;2732;52.092;11.556;2023-08-30T12:51:35;28.00;87.50
5419;DHT22;2732;52.092;11.556;2023-08-30T12:56:36;27.70;85.70
5419;DHT22;2732;52.092;11.556;2023-08-30T13:01:37;27.20;85.80
5419;DHT22;2732;52.092;11.556;2023-08-30T13:06:37;26.80;87.70
5419;DHT22;2732;52.092;11.556;2023-08-30T13:11:38;26.40;88.80
5419;DHT22;2732;52.092;11.556;2023-08-30T13:16:39;26.20;90.00
5419;DHT22;2732;52.092;11.556;2023-08-30T13:21:39;25.90;90.20
5419;DHT22;2732;52.092;11.556;2023-08-30T13:26:40;25.80;90.10
5419;DHT22;2732;52.092;11.556;2023-08-30T13:31:41;25.60;89.40
5419;DHT22;2732;52.092;11.556;2023-08-30T13:36:41;25.40;89.70
5419;DHT22;2732;52.092;11.556;2023-08-30T13:41:42;25.20;90.40
5419;DHT22;2732;52.092;11.556;2023-08-30T13:46:44;25.10;90.70
5419;DHT22;2732;52.092;11.556;2023-08-30T13:51:47;25.00;91.50
5419;DHT22;2732;52.092;11.556;2023-08-30T13:56:47;24.80;91.70
5419;DHT22;2732;52.092;11.556;2023-08-30T14:01:48;24.80;91.90
5419;DHT22;2732;52.092;11.556;2023-08-30T14:06:49;24.60;91.50
5419;DHT22;2732;52.092;11.556;2023-08-30T14:11:50;24.50;91.30
5419;DHT22;2732;52.092;11.556;2023-08-30T14:16:52;24.30;91.50
5419;DHT22;2732;52.092;11.556;2023-08-30T14:21:52;24.20;91.80
5419;DHT22;2732;52.092;11.556;2023-08-30T14:26:55;24.00;91.90
5419;DHT22;2732;52.092;11.556;2023-08-30T14:31:56;23.90;92.00
5419;DHT22;2732;52.092;11.556;2023-08-30T14:36:57;23.80;92.40
5419;DHT22;2732;52.092;11.556;2023-08-30T14:41:58;23.70;92.30
5419;DHT22;2732;52.092;11.556;2023-08-30T14:46:58;23.50;92.10
5419;DHT22;2732;52.092;11.556;2023-08-30T14:52:00;23.40;92.50
5419;DHT22;2732;52.092;11.556;2023-08-30T14:57:01;23.30;93.00
5419;DHT22;2732;52.092;11.556;2023-08-30T15:02:02;23.10;93.30
5419;DHT22;2732;52.092;11.556;2023-08-30T15:07:02;23.10;93.20
5419;DHT22;2732;52.092;11.556;2023-08-30T15:12:04;23.00;93.10
5419;DHT22;2732;52.092;11.556;2023-08-30T15:17:05;23.00;92.90
5419;DHT22;2732;52.092;11.556;2023-08-30T15:22:06;23.00;92.70
5419;DHT22;2732;52.092;11.556;2023-08-30T15:27:06;23.00;92.70
5419;DHT22;2732;52.092;11.556;2023-08-30T15:32:07;23.00;93.20
5419;DHT22;2732;52.092;11.556;2023-08-30T15:37:08;22.90;93.30
5419;DHT22;2732;52.092;11.556;2023-08-30T15:42:12;22.80;93.60
5419;DHT22;2732;52.092;11.556;2023-08-30T15:47:13;22.70;93.90
5419;DHT22;2732;52.092;11.556;2023-08-30T15:52:13;22.50;94.20
5419;DHT22;2732;52.092;11.556;2023-08-30T15:57:14;22.40;94.20
5419;DHT22;2732;52.092;11.556;2023-08-30T16:02:15;22.30;94.40
5419;DHT22;2732;52.092;11.556;2023-08-30T16:07:15;22.20;94.30
5419;DHT22;2732;52.092;11.556;2023-08-30T16:12:16;22.10;94.10
5419;DHT22;2732;52.092;11.556;2023-08-30T16:17:17;22.00;93.90
5419;DHT22;2732;52.092;11.556;2023-08-30T16:22:19;22.00;93.90
5419;DHT22;2732;52.092;11.556;2023-08-30T16:27:20;22.00;93.60
5419;DHT22;2732;52.092;11.556;2023-08-30T16:32:20;22.20;93.40
5419;DHT22;2732;52.092;11.556;2023-08-30T16:37:21;22.40;93.20
5419;DHT22;2732;52.092;11.556;2023-08-30T16:42:22;22.60;92.60
5419;DHT22;2732;52.092;11.556;2023-08-30T16:47:22;22.70;92.50
5419;DHT22;2732;52.092;11.556;2023-08-30T16:52:23;22.80;92.10
5419;DHT22;2732;52.092;11.556;2023-08-30T16:57:23;22.70;91.90
5419;DHT22;2732;52.092;11.556;2023-08-30T17:02:28;22.70;92.10
5419;DHT22;2732;52.092;11.556;2023-08-30T17:07:29;22.60;92.20
5419;DHT22;2732;52.092;11.556;2023-08-30T17:12:30;22.40;92.40
5419;DHT22;2732;52.092;11.556;2023-08-30T17:17:31;22.20;93.00
5419;DHT22;2732;52.092;11.556;2023-08-30T17:22:32;22.00;93.40
5419;DHT22;2732;52.092;11.556;2023-08-30T17:27:32;21.80;93.60
5419;DHT22;2732;52.092;11.556;2023-08-30T17:32:34;21.50;94.00
5419;DHT22;2732;52.092;11.556;2023-08-30T17:37:34;21.40;94.20
5419;DHT22;2732;52.092;11.556;2023-08-30T17:42:35;21.10;94.60
5419;DHT22;2732;52.092;11.556;2023-08-30T17:47:36;20.90;95.00
5419;DHT22;2732;52.092;11.556;2023-08-30T17:52:36;20.70;95.30
5419;DHT22;2732;52.092;11.556;2023-08-30T17:57:37;20.50;95.60
5419;DHT22;2732;52.092;11.556;2023-08-30T18:02:37;20.30;95.70
5419;DHT22;2732;52.092;11.556;2023-08-30T18:07:38;20.10;95.90
5419;DHT22;2732;52.092;11.556;2023-08-30T18:12:39;19.90;96.50
5419;DHT22;2732;52.092;11.556;2023-08-30T18:17:40;19.70;96.90
5419;DHT22;2732;52.092;11.556;2023-08-30T18:22:41;19.60;97.30
5419;DHT22;2732;52.092;11.556;2023-08-30T18:27:42;19.40;97.50
5419;DHT22;2732;52.092;11.556;2023-08-30T18:32:42;19.30;97.80
5419;DHT22;2732;52.092;11.556;2023-08-30T18:37:45;19.20;98.20
5419;DHT22;2732;52.092;11.556;2023-08-30T18:42:46;19.10;98.40
5419;DHT22;2732;52.092;11.556;2023-08-30T18:47:46;19.00;98.70
5419;DHT22;2732;52.092;11.556;2023-08-30T18:52:47;19.00;98.90
5419;DHT22;2732;52.092;11.556;2023-08-30T18:57:49;18.90;99.10
5419;DHT22;2732;52.092;11.556;2023-08-30T19:02:49;18.80;99.50
5419;DHT22;2732;52.092;11.556;2023-08-30T19:07:50;18.70;99.40
5419;DHT22;2732;52.092;11.556;2023-08-30T19:12:51;18.70;99.50
5419;DHT22;2732;52.092;11.556;2023-08-30T19:17:51;18.60;99.30
5419;DHT22;2732;52.092;11.556;2023-08-30T19:22:52;18.60;99.30
5419;DHT22;2732;52.092;11.556;2023-08-30T19:27:52;18.50;99.20
5419;DHT22;2732;52.092;11.556;2023-08-30T19:32:53;18.50;99.20
5419;DHT22;2732;52.092;11.556;2023-08-30T19:37:54;18.40;99.20
5419;DHT22;2732;52.092;11.556;2023-08-30T19:42:54;18.40;99.50
5419;DHT22;2732;52.092;11.556;2023-08-30T19:47:55;18.30;99.80
5419;DHT22;2732;52.092;11.556;2023-08-30T19:52:55;18.30;99.90
5419;DHT22;2732;52.092;11.556;2023-08-30T19:58:00;18.20;99.90
5419;DHT22;2732;52.092;11.556;2023-08-30T20:03:04;18.10;99.90
5419;DHT22;2732;52.092;11.556;2023-08-30T20:08:04;18.00;99.90
5419;DHT22;2732;52.092;11.556;2023-08-30T20:13:05;17.90;99.90
5419;DHT22;2732;52.092;11.556;2023-08-30T20:18:07;17.80;99.90
5419;DHT22;2732;52.092;11.556;2023-08-30T20:23:09;17.80;99.90
5419;DHT22;2732;52.092;11.556;2023-08-30T20:28:10;17.70;99.90
5419;DHT22;2732;52.092;11.556;2023-08-30T20:33:12;17.60;99.90
5419;DHT22;2732;52.092;11.556;2023-08-30T20:38:13;17.50;99.90
5419;DHT22;2732;52.092;11.556;2023-08-30T20:43:13;17.40;99.90
5419;DHT22;2732;52.092;11.556;2023-08-30T20:48:14;17.30;99.90
5419;DHT22;2732;52.092;11.556;2023-08-30T20:53:14;17.10;99.90
5419;DHT22;2732;52.092;11.556;2023-08-30T20:58:15;17.00;99.90
5419;DHT22;2732;52.092;11.556;2023-08-30T21:03:19;16.90;99.90
5419;DHT22;2732;52.092;11.556;2023-08-30T21:08:20;16.90;99.90
5419;DHT22;2732;52.092;11.556;2023-08-30T21:13:20;16.80;99.90
5419;DHT22;2732;52.092;11.556;2023-08-30T21:18:21;16.70;99.90
5419;DHT22;2732;52.092;11.556;2023-08-30T21:23:22;16.60;99.90
5419;DHT22;2732;52.092;11.556;2023-08-30T21:28:23;16.60;99.90
5419;DHT22;2732;52.092;11.556;2023-08-30T21:33:24;16.50;99.90
5419;DHT22;2732;52.092;11.556;2023-08-30T21:38:25;16.40;99.90
5419;DHT22;2732;52.092;11.556;2023-08-30T21:43:25;16.40;99.90
5419;DHT22;2732;52.092;11.556;2023-08-30T21:48:26;16.30;99.90
5419;DHT22;2732;52.092;11.556;2023-08-30T21:53:26;16.30;99.90
5419;DHT22;2732;52.092;11.556;2023-08-30T21:58:27;16.20;99.90
5419;DHT22;2732;52.092;11.556;2023-08-30T22:03:28;16.20;99.90
5419;DHT22;2732;52.092;11.556;2023-08-30T22:08:29;16.10;99.90
5419;DHT22;2732;52.092;11.556;2023-08-30T22:13:29;16.10;99.90
5419;DHT22;2732;52.092;11.556;2023-08-30T22:18:30;16.00;99.90
5419;DHT22;2732;52.092;11.556;2023-08-30T22:23:31;16.00;99.90
5419;DHT22;2732;52.092;11.556;2023-08-30T22:28:32;15.90;99.90
5419;DHT22;2732;52.092;11.556;2023-08-30T22:33:33;15.90;99.90
5419;DHT22;2732;52.092;11.556;2023-08-30T22:38:37;15.90;99.90
5419;DHT22;2732;52.092;11.556;2023-08-30T22:43:38;15.80;99.90
5419;DHT22;2732;52.092;11.556;2023-08-30T22:48:38;15.70;99.90
5419;DHT22;2732;52.092;11.556;2023-08-30T22:53:39;15.70;99.90
5419;DHT22;2732;52.092;11.556;2023-08-30T22:58:41;15.70;99.90
5419;DHT22;2732;52.092;11.556;2023-08-30T23:03:41;15.60;99.90
5419;DHT22;2732;52.092;11.556;2023-08-30T23:08:42;15.60;99.90
5419;DHT22;2732;52.092;11.556;2023-08-30T23:13:45;15.60;99.90
5419;DHT22;2732;52.092;11.556;2023-08-30T23:18:46;15.50;99.90
5419;DHT22;2732;52.092;11.556;2023-08-30T23:23:46;15.50;99.90
5419;DHT22;2732;52.092;11.556;2023-08-30T23:28:47;15.50;99.90
5419;DHT22;2732;52.092;11.556;2023-08-30T23:33:49;15.50;99.90
5419;DHT22;2732;52.092;11.556;2023-08-30T23:38:51;15.40;99.90
5419;DHT22;2732;52.092;11.556;2023-08-30T23:43:52;15.40;99.90
5419;DHT22;2732;52.092;11.556;2023-08-30T23:48:53;15.40;99.90
5419;DHT22;2732;52.092;11.556;2023-08-30T23:53:54;15.40;99.90
5419;DHT22;2732;52.092;11.556;2023-08-30T23:58:55;15.40;99.90
